Time;durP1;ratioP1;P1;durP2;ratioP2;P2;SDS_P1;SDS_P2;PMS_P1;PMS_P2;Temp;Humidity;BMP_temperature;BMP_pressure;BME280_temperature;BME280_humidity;BME280_pressure;Samples;Min_cycle;Max_cycle;Signal;HPM_P1;HPM_P2
2021/09/19 00:00:22;;;;;;;35.83;24.45;;;;;;;;;;5067241;28;20024;-72
2021/09/19 00:02:48;;;;;;;35.40;25.10;;;;;;;;;;5062725;28;20029;-71
2021/09/19 00:05:15;;;;;;;33.42;22.10;;;;;;;;;;5071051;28;20032;-72
2021/09/19 00:07:42;;;;;;;31.92;23.85;;;;;;;;;;5075938;28;20016;-72
2021/09/19 00:10:09;;;;;;;33.53;23.75;;;;;;;;;;5070535;28;20075;-72
2021/09/19 00:12:36;;;;;;;36.28;25.48;;;;;;;;;;5062048;28;20024;-72
2021/09/19 00:15:03;;;;;;;34.38;23.15;;;;;;;;;;5064730;28;20028;-73
2021/09/19 00:17:29;;;;;;;34.85;23.92;;;;;;;;;;5067142;28;20027;-72
2021/09/19 00:19:55;;;;;;;31.58;23.52;;;;;;;;;;5070142;28;20036;-72
2021/09/19 00:22:21;;;;;;;37.42;25.55;;;;;;;;;;5070419;28;20086;-71
2021/09/19 00:24:47;;;;;;;33.22;23.75;;;;;;;;;;5072106;28;20028;-73
2021/09/19 00:27:14;;;;;;;36.13;25.05;;;;;;;;;;5069573;28;20021;-72
2021/09/19 00:29:40;;;;;;;35.15;23.85;;;;;;;;;;5069996;28;20020;-72
2021/09/19 00:32:06;;;;;;;37.17;24.48;;;;;;;;;;5064726;28;20031;-72
2021/09/19 00:34:32;;;;;;;32.65;23.00;;;;;;;;;;5069589;28;20048;-72
2021/09/19 00:36:58;;;;;;;35.38;23.85;;;;;;;;;;5065541;28;20028;-71
2021/09/19 00:39:24;;;;;;;34.58;23.60;;;;;;;;;;5065390;28;20544;-72
2021/09/19 00:41:50;;;;;;;33.40;22.35;;;;;;;;;;5073528;28;20444;-72
2021/09/19 00:44:16;;;;;;;35.10;23.67;;;;;;;;;;5070478;28;20568;-72
2021/09/19 00:46:42;;;;;;;36.83;23.70;;;;;;;;;;5069130;28;20032;-72
2021/09/19 00:49:08;;;;;;;29.20;21.92;;;;;;;;;;5060668;28;20487;-72
2021/09/19 00:51:34;;;;;;;29.23;21.80;;;;;;;;;;5066213;28;20086;-72
2021/09/19 00:54:03;;;;;;;32.85;21.20;;;;;;;;;;5064931;28;20050;-72
2021/09/19 00:56:30;;;;;;;33.90;24.48;;;;;;;;;;5069984;28;20021;-72
2021/09/19 00:58:57;;;;;;;35.15;22.83;;;;;;;;;;5066709;28;20533;-72
2021/09/19 01:01:23;;;;;;;31.98;24.73;;;;;;;;;;5058065;28;20086;-72
2021/09/19 01:03:49;;;;;;;31.60;23.23;;;;;;;;;;5066388;28;20029;-72
2021/09/19 01:06:16;;;;;;;35.28;24.70;;;;;;;;;;5058966;28;20078;-72
2021/09/19 01:08:43;;;;;;;32.88;22.60;;;;;;;;;;5066316;28;20020;-72
2021/09/19 01:11:15;;;;;;;31.25;21.55;;;;;;;;;;5067599;28;20047;-71
2021/09/19 01:13:42;;;;;;;32.17;23.02;;;;;;;;;;5060579;28;20024;-71
2021/09/19 01:16:10;;;;;;;30.35;22.77;;;;;;;;;;5064433;28;20024;-72
2021/09/19 01:18:37;;;;;;;31.23;22.52;;;;;;;;;;5062346;28;20029;-72
2021/09/19 01:21:03;;;;;;;28.65;21.15;;;;;;;;;;5068272;28;20028;-72
2021/09/19 01:23:33;;;;;;;32.67;23.83;;;;;;;;;;5068928;28;20024;-71
2021/09/19 01:26:00;;;;;;;29.77;21.67;;;;;;;;;;5067045;28;20068;-72
2021/09/19 01:28:26;;;;;;;30.05;22.05;;;;;;;;;;5067929;28;20025;-72
2021/09/19 01:30:52;;;;;;;33.83;22.98;;;;;;;;;;5071115;28;20402;-72
2021/09/19 01:33:18;;;;;;;30.85;22.30;;;;;;;;;;5069370;28;20489;-72
2021/09/19 01:35:44;;;;;;;30.88;20.88;;;;;;;;;;5072432;28;20113;-72
2021/09/19 01:38:11;;;;;;;31.10;20.40;;;;;;;;;;5071231;28;20031;-72
2021/09/19 01:40:37;;;;;;;30.08;21.83;;;;;;;;;;5067385;28;20049;-71
2021/09/19 01:43:03;;;;;;;31.48;21.05;;;;;;;;;;5072231;28;20025;-71
2021/09/19 01:45:29;;;;;;;32.22;24.17;;;;;;;;;;5061023;28;20032;-72
2021/09/19 01:47:56;;;;;;;32.70;22.77;;;;;;;;;;5069866;28;20052;-71
2021/09/19 01:50:22;;;;;;;31.58;21.88;;;;;;;;;;5071058;28;20021;-72
2021/09/19 01:52:49;;;;;;;30.88;22.48;;;;;;;;;;5073007;28;20020;-72
2021/09/19 01:55:15;;;;;;;33.72;24.15;;;;;;;;;;5070374;28;20020;-72
2021/09/19 01:57:41;;;;;;;35.97;25.20;;;;;;;;;;5068455;28;20033;-72
2021/09/19 02:00:08;;;;;;;30.77;22.45;;;;;;;;;;5070542;28;20032;-72
2021/09/19 02:02:35;;;;;;;30.48;21.60;;;;;;;;;;5061500;28;20025;-72
2021/09/19 02:05:01;;;;;;;31.13;22.58;;;;;;;;;;5065584;28;20406;-72
2021/09/19 02:07:27;;;;;;;30.60;23.33;;;;;;;;;;5077234;28;20020;-72
2021/09/19 02:09:53;;;;;;;35.72;24.95;;;;;;;;;;5069643;28;20065;-72
2021/09/19 02:12:19;;;;;;;33.78;24.10;;;;;;;;;;5070080;28;20066;-72
2021/09/19 02:14:45;;;;;;;31.60;25.63;;;;;;;;;;5072843;28;20078;-71
2021/09/19 02:17:12;;;;;;;35.70;23.23;;;;;;;;;;5072534;28;20315;-72
2021/09/19 02:19:38;;;;;;;34.38;25.02;;;;;;;;;;5062762;28;20494;-72
2021/09/19 02:22:06;;;;;;;32.58;22.48;;;;;;;;;;5072590;28;20058;-71
2021/09/19 02:24:32;;;;;;;34.78;24.73;;;;;;;;;;5070955;28;20032;-72
2021/09/19 02:26:58;;;;;;;34.20;26.17;;;;;;;;;;5071082;28;20028;-72
2021/09/19 02:29:24;;;;;;;30.85;23.83;;;;;;;;;;5072058;28;20021;-72
2021/09/19 02:31:50;;;;;;;35.70;23.55;;;;;;;;;;5069145;28;20025;-72
2021/09/19 02:34:16;;;;;;;34.38;24.65;;;;;;;;;;5070251;28;20043;-72
2021/09/19 02:36:42;;;;;;;35.45;25.98;;;;;;;;;;5070167;28;20032;-72
2021/09/19 02:39:09;;;;;;;36.13;25.83;;;;;;;;;;5070656;28;20094;-71
2021/09/19 02:41:36;;;;;;;38.08;27.60;;;;;;;;;;5071613;28;20510;-72
2021/09/19 02:44:02;;;;;;;36.10;25.63;;;;;;;;;;5071451;28;20057;-72
2021/09/19 02:46:28;;;;;;;38.88;27.38;;;;;;;;;;5066059;28;20039;-73
2021/09/19 02:48:54;;;;;;;33.80;24.92;;;;;;;;;;5071987;28;20062;-72
2021/09/19 02:51:21;;;;;;;37.65;23.92;;;;;;;;;;5067521;28;20020;-71
2021/09/19 02:53:47;;;;;;;39.88;27.15;;;;;;;;;;5062059;28;20025;-72
2021/09/19 02:56:13;;;;;;;36.20;25.25;;;;;;;;;;5071183;28;20413;-72
2021/09/19 02:58:39;;;;;;;40.25;26.75;;;;;;;;;;5070713;28;20535;-72
2021/09/19 03:01:05;;;;;;;39.35;26.95;;;;;;;;;;5071577;28;21257;-72
2021/09/19 03:03:31;;;;;;;37.85;25.27;;;;;;;;;;5070633;28;20035;-72
2021/09/19 03:05:57;;;;;;;38.88;26.50;;;;;;;;;;5071627;28;20056;-72
2021/09/19 03:08:23;;;;;;;36.60;25.05;;;;;;;;;;5070904;28;20028;-72
2021/09/19 03:10:50;;;;;;;32.88;23.85;;;;;;;;;;5072069;28;20094;-73
2021/09/19 03:13:16;;;;;;;36.13;25.73;;;;;;;;;;5066335;28;20021;-72
2021/09/19 03:15:43;;;;;;;33.85;24.60;;;;;;;;;;5069961;28;20509;-72
2021/09/19 03:18:09;;;;;;;35.65;26.80;;;;;;;;;;5070480;28;20055;-72
2021/09/19 03:20:35;;;;;;;36.22;24.13;;;;;;;;;;5070063;28;20047;-73
2021/09/19 03:23:01;;;;;;;40.53;27.25;;;;;;;;;;5066560;28;20021;-72
2021/09/19 03:25:27;;;;;;;35.30;25.23;;;;;;;;;;5070788;28;20036;-72
2021/09/19 03:27:53;;;;;;;36.70;27.83;;;;;;;;;;5069453;28;20106;-72
2021/09/19 03:30:19;;;;;;;36.85;24.13;;;;;;;;;;5071925;28;20418;-72
2021/09/19 03:32:45;;;;;;;33.50;24.30;;;;;;;;;;5063581;28;20039;-72
2021/09/19 03:35:12;;;;;;;35.92;25.70;;;;;;;;;;5070418;28;20024;-71
2021/09/19 03:37:38;;;;;;;41.05;26.38;;;;;;;;;;5063824;28;20024;-72
2021/09/19 03:40:06;;;;;;;36.38;25.20;;;;;;;;;;5065423;28;20041;-72
2021/09/19 03:42:32;;;;;;;35.35;26.42;;;;;;;;;;5063628;28;20025;-72
2021/09/19 03:44:58;;;;;;;35.28;26.38;;;;;;;;;;5065138;28;20032;-72
2021/09/19 03:47:24;;;;;;;33.00;25.38;;;;;;;;;;5068310;28;20059;-72
2021/09/19 03:49:50;;;;;;;35.90;24.73;;;;;;;;;;5070886;28;20031;-72
2021/09/19 03:52:16;;;;;;;36.75;25.45;;;;;;;;;;5069540;28;20471;-72
2021/09/19 03:54:42;;;;;;;31.80;24.15;;;;;;;;;;5078493;28;20056;-72
2021/09/19 03:57:08;;;;;;;33.50;24.55;;;;;;;;;;5070479;28;20036;-71
2021/09/19 03:59:34;;;;;;;35.95;26.02;;;;;;;;;;5070803;28;20025;-72
2021/09/19 04:02:00;;;;;;;34.35;25.25;;;;;;;;;;5068471;28;20028;-72
2021/09/19 04:04:26;;;;;;;35.03;25.38;;;;;;;;;;5057267;28;20540;-72
2021/09/19 04:06:53;;;;;;;36.50;26.60;;;;;;;;;;5077611;28;20393;-72
2021/09/19 04:09:19;;;;;;;37.25;26.52;;;;;;;;;;5069028;28;20410;-73
2021/09/19 04:11:45;;;;;;;38.95;28.83;;;;;;;;;;5068174;28;20402;-72
2021/09/19 04:14:11;;;;;;;43.17;29.38;;;;;;;;;;5069577;28;20025;-72
2021/09/19 04:16:37;;;;;;;39.00;29.33;;;;;;;;;;5069906;28;20115;-72
2021/09/19 04:19:03;;;;;;;39.42;28.77;;;;;;;;;;5068459;28;20021;-72
2021/09/19 04:21:31;;;;;;;39.92;30.63;;;;;;;;;;5069808;28;20505;-72
2021/09/19 04:23:57;;;;;;;42.47;31.70;;;;;;;;;;5070857;28;20040;-72
2021/09/19 04:26:23;;;;;;;40.75;31.45;;;;;;;;;;5065085;28;20521;-72
2021/09/19 04:28:51;;;;;;;35.53;27.55;;;;;;;;;;5061815;28;20506;-72
2021/09/19 04:31:18;;;;;;;41.63;29.83;;;;;;;;;;5071345;28;20048;-72
2021/09/19 04:33:44;;;;;;;36.20;27.65;;;;;;;;;;5067224;28;20499;-72
2021/09/19 04:36:10;;;;;;;40.40;28.02;;;;;;;;;;5069209;28;20032;-71
2021/09/19 04:38:36;;;;;;;37.95;28.90;;;;;;;;;;5068055;28;20064;-72
2021/09/19 04:41:02;;;;;;;42.67;30.50;;;;;;;;;;5070695;28;20025;-71
2021/09/19 04:43:28;;;;;;;39.85;31.45;;;;;;;;;;5066296;28;20029;-72
2021/09/19 04:45:54;;;;;;;37.42;28.50;;;;;;;;;;5070827;28;20044;-72
2021/09/19 04:48:20;;;;;;;40.55;28.98;;;;;;;;;;5068619;28;20032;-72
2021/09/19 04:50:46;;;;;;;42.17;29.50;;;;;;;;;;5069233;28;20025;-72
2021/09/19 04:53:12;;;;;;;44.72;32.13;;;;;;;;;;5066401;28;20478;-72
2021/09/19 04:55:38;;;;;;;44.33;31.17;;;;;;;;;;5068941;28;20106;-72
2021/09/19 04:58:04;;;;;;;40.60;28.25;;;;;;;;;;5067163;28;20032;-72
2021/09/19 05:00:31;;;;;;;42.33;28.95;;;;;;;;;;5070812;28;20051;-72
2021/09/19 05:02:57;;;;;;;39.08;29.38;;;;;;;;;;5067801;28;20031;-72
2021/09/19 05:05:23;;;;;;;39.20;29.88;;;;;;;;;;5069988;28;20024;-71
2021/09/19 05:07:49;;;;;;;41.28;29.00;;;;;;;;;;5073623;28;20029;-72
2021/09/19 05:10:15;;;;;;;39.45;30.27;;;;;;;;;;5070807;28;20021;-72
2021/09/19 05:12:41;;;;;;;42.70;30.33;;;;;;;;;;5069820;28;20151;-72
2021/09/19 05:15:07;;;;;;;39.90;30.23;;;;;;;;;;5060976;28;20025;-71
2021/09/19 05:17:33;;;;;;;44.50;31.30;;;;;;;;;;5060653;28;20043;-72
2021/09/19 05:19:59;;;;;;;42.53;30.70;;;;;;;;;;5069986;28;20112;-72
2021/09/19 05:22:25;;;;;;;45.22;30.95;;;;;;;;;;5061255;28;20033;-72
2021/09/19 05:24:51;;;;;;;42.58;30.55;;;;;;;;;;5069281;28;20037;-72
2021/09/19 05:27:17;;;;;;;40.20;28.10;;;;;;;;;;5069462;28;20092;-72
2021/09/19 05:29:43;;;;;;;42.05;30.40;;;;;;;;;;5073041;28;20032;-72
2021/09/19 05:32:10;;;;;;;40.03;29.83;;;;;;;;;;5071496;28;20020;-72
2021/09/19 05:34:36;;;;;;;38.70;28.83;;;;;;;;;;5070527;28;20078;-72
2021/09/19 05:37:02;;;;;;;36.65;28.55;;;;;;;;;;5069675;28;20032;-72
2021/09/19 05:39:28;;;;;;;40.72;29.95;;;;;;;;;;5078775;28;20043;-72
2021/09/19 05:41:54;;;;;;;40.78;29.65;;;;;;;;;;5069821;28;20039;-73
2021/09/19 05:44:20;;;;;;;38.08;28.35;;;;;;;;;;5073256;28;20054;-72
2021/09/19 05:46:46;;;;;;;38.97;28.40;;;;;;;;;;5086827;28;20111;-71
2021/09/19 05:49:12;;;;;;;37.58;28.30;;;;;;;;;;5077773;28;20032;-72
2021/09/19 05:51:38;;;;;;;35.92;26.95;;;;;;;;;;5068709;28;20556;-72
2021/09/19 05:54:05;;;;;;;38.78;27.88;;;;;;;;;;5070007;28;20060;-71
2021/09/19 05:56:31;;;;;;;41.15;28.77;;;;;;;;;;5069136;28;20035;-72
2021/09/19 05:58:57;;;;;;;42.75;29.80;;;;;;;;;;5069491;28;20028;-72
2021/09/19 06:01:23;;;;;;;37.00;28.23;;;;;;;;;;5075945;28;20028;-72
2021/09/19 06:03:49;;;;;;;42.55;30.63;;;;;;;;;;5073874;28;20028;-72
2021/09/19 06:06:15;;;;;;;45.80;30.67;;;;;;;;;;5077106;28;20029;-73
2021/09/19 06:08:41;;;;;;;38.75;28.80;;;;;;;;;;5072037;28;20039;-72
2021/09/19 06:11:07;;;;;;;39.72;29.88;;;;;;;;;;5070633;28;20111;-72
2021/09/19 06:13:33;;;;;;;38.80;29.95;;;;;;;;;;5065449;28;20406;-73
2021/09/19 06:16:00;;;;;;;37.35;27.50;;;;;;;;;;5072138;28;20414;-71
2021/09/19 06:18:29;;;;;;;40.40;30.58;;;;;;;;;;5077670;28;20098;-71
2021/09/19 06:20:55;;;;;;;37.25;27.27;;;;;;;;;;5062487;28;20104;-71
2021/09/19 06:23:21;;;;;;;36.53;28.05;;;;;;;;;;5071324;28;20033;-71
2021/09/19 06:25:48;;;;;;;42.40;29.63;;;;;;;;;;5071114;28;20021;-72
2021/09/19 06:28:14;;;;;;;37.05;29.73;;;;;;;;;;5072238;28;20020;-72
2021/09/19 06:30:40;;;;;;;39.72;29.55;;;;;;;;;;5070294;28;20494;-72
2021/09/19 06:33:06;;;;;;;34.50;25.92;;;;;;;;;;5071918;28;20479;-71
2021/09/19 06:35:32;;;;;;;34.65;26.40;;;;;;;;;;5072908;28;20020;-72
2021/09/19 06:37:58;;;;;;;37.88;28.52;;;;;;;;;;5070512;28;20039;-71
2021/09/19 06:40:24;;;;;;;38.33;28.90;;;;;;;;;;5073085;28;20025;-71
2021/09/19 06:42:50;;;;;;;37.42;27.77;;;;;;;;;;5070560;28;20028;-71
2021/09/19 06:45:16;;;;;;;38.70;29.60;;;;;;;;;;5072343;28;20533;-72
2021/09/19 06:47:43;;;;;;;40.13;27.92;;;;;;;;;;5070700;28;20499;-72
2021/09/19 06:50:10;;;;;;;37.20;28.25;;;;;;;;;;5063392;28;20024;-71
2021/09/19 06:52:36;;;;;;;38.40;28.45;;;;;;;;;;5068003;28;20132;-71
2021/09/19 06:55:02;;;;;;;40.35;28.98;;;;;;;;;;5055108;28;20056;-72
2021/09/19 06:57:29;;;;;;;38.92;28.85;;;;;;;;;;5070553;28;20056;-72
2021/09/19 06:59:55;;;;;;;38.42;29.17;;;;;;;;;;5072681;28;20052;-72
2021/09/19 07:02:21;;;;;;;43.45;30.05;;;;;;;;;;5071097;28;20016;-72
2021/09/19 07:04:47;;;;;;;39.40;30.33;;;;;;;;;;5072556;28;20033;-72
2021/09/19 07:07:14;;;;;;;39.92;30.63;;;;;;;;;;5071449;28;20032;-71
2021/09/19 07:09:40;;;;;;;40.28;29.80;;;;;;;;;;5072046;28;20390;-72
2021/09/19 07:12:07;;;;;;;40.80;32.15;;;;;;;;;;5071971;28;20050;-72
2021/09/19 07:14:33;;;;;;;38.90;30.15;;;;;;;;;;5071902;28;20024;-71
2021/09/19 07:16:59;;;;;;;39.08;29.27;;;;;;;;;;5072199;28;20039;-72
2021/09/19 07:19:25;;;;;;;36.40;29.38;;;;;;;;;;5070374;28;20029;-72
2021/09/19 07:21:51;;;;;;;45.28;30.67;;;;;;;;;;5072809;28;20086;-72
2021/09/19 07:24:17;;;;;;;39.22;30.48;;;;;;;;;;5072580;28;20115;-72
2021/09/19 07:26:43;;;;;;;37.38;28.70;;;;;;;;;;5071424;28;20441;-71
2021/09/19 07:29:09;;;;;;;35.75;27.95;;;;;;;;;;5070474;28;20046;-72
2021/09/19 07:31:35;;;;;;;36.20;28.27;;;;;;;;;;5072056;28;20029;-72
2021/09/19 07:34:02;;;;;;;39.42;30.63;;;;;;;;;;5071189;28;20098;-71
2021/09/19 07:36:31;;;;;;;35.17;26.30;;;;;;;;;;5069228;28;20119;-72
2021/09/19 07:39:00;;;;;;;37.70;28.70;;;;;;;;;;5074063;28;20051;-72
2021/09/19 07:41:27;;;;;;;34.45;25.70;;;;;;;;;;5069492;28;20051;-71
2021/09/19 07:43:53;;;;;;;37.50;28.08;;;;;;;;;;5071223;28;20099;-72
2021/09/19 07:46:21;;;;;;;40.83;29.98;;;;;;;;;;5067840;28;20029;-72
2021/09/19 07:48:48;;;;;;;37.65;25.70;;;;;;;;;;5065289;28;20029;-72
2021/09/19 07:51:14;;;;;;;41.17;29.25;;;;;;;;;;5070352;28;20024;-72
2021/09/19 07:53:40;;;;;;;38.25;28.30;;;;;;;;;;5070173;28;20021;-72
2021/09/19 07:56:07;;;;;;;35.95;27.75;;;;;;;;;;5085968;28;20048;-72
2021/09/19 07:58:33;;;;;;;38.45;30.50;;;;;;;;;;5069488;28;20037;-72
2021/09/19 08:00:59;;;;;;;36.80;26.70;;;;;;;;;;5071751;28;20127;-72
2021/09/19 08:03:25;;;;;;;32.35;25.42;;;;;;;;;;5068027;28;20036;-71
2021/09/19 08:05:51;;;;;;;36.50;28.75;;;;;;;;;;5072864;28;20024;-71
2021/09/19 08:08:17;;;;;;;38.45;28.55;;;;;;;;;;5069474;28;20028;-72
2021/09/19 08:10:43;;;;;;;37.10;28.17;;;;;;;;;;5078190;28;20033;-72
2021/09/19 08:13:09;;;;;;;35.95;28.48;;;;;;;;;;5071560;28;20043;-71
2021/09/19 08:15:35;;;;;;;32.60;27.08;;;;;;;;;;5076909;28;20515;-72
2021/09/19 08:18:01;;;;;;;33.33;24.55;;;;;;;;;;5071511;28;20016;-72
2021/09/19 08:20:27;;;;;;;38.30;28.33;;;;;;;;;;5071182;28;20036;-71
2021/09/19 08:22:53;;;;;;;35.65;27.35;;;;;;;;;;5061042;28;20106;-72
2021/09/19 08:25:20;;;;;;;33.10;25.80;;;;;;;;;;5063302;28;20027;-71
2021/09/19 08:27:46;;;;;;;36.45;27.95;;;;;;;;;;5069721;28;20028;-72
2021/09/19 08:30:13;;;;;;;34.60;25.08;;;;;;;;;;5064680;28;20214;-72
2021/09/19 08:32:40;;;;;;;31.70;24.23;;;;;;;;;;5063403;28;20051;-72
2021/09/19 08:35:07;;;;;;;32.47;26.88;;;;;;;;;;5067022;28;20031;-72
2021/09/19 08:37:33;;;;;;;35.88;27.48;;;;;;;;;;5065564;28;20219;-72
2021/09/19 08:39:59;;;;;;;31.67;26.10;;;;;;;;;;5066984;28;20037;-72
2021/09/19 08:42:25;;;;;;;39.40;27.83;;;;;;;;;;5067189;28;20037;-71
2021/09/19 08:44:51;;;;;;;32.80;26.02;;;;;;;;;;5063082;28;20029;-72
2021/09/19 08:47:18;;;;;;;32.47;25.25;;;;;;;;;;5062227;28;20029;-72
2021/09/19 08:49:44;;;;;;;35.28;26.55;;;;;;;;;;5068309;28;20016;-71
2021/09/19 08:52:11;;;;;;;31.02;25.15;;;;;;;;;;5064459;28;20017;-72
2021/09/19 08:54:38;;;;;;;33.10;25.85;;;;;;;;;;5066139;28;20478;-71
2021/09/19 08:57:04;;;;;;;30.05;25.05;;;;;;;;;;5054867;28;20033;-71
2021/09/19 08:59:50;;;;;;;30.75;25.58;;;;;;;;;;5060405;28;20474;-71
2021/09/19 09:02:17;;;;;;;36.28;25.95;;;;;;;;;;5065759;28;20115;-72
2021/09/19 09:04:43;;;;;;;35.78;27.45;;;;;;;;;;5069160;28;20031;-72
2021/09/19 09:07:10;;;;;;;35.30;26.48;;;;;;;;;;5073401;28;20040;-72
2021/09/19 09:09:36;;;;;;;29.02;22.92;;;;;;;;;;5076398;28;20087;-72
2021/09/19 09:12:04;;;;;;;30.00;24.27;;;;;;;;;;5078558;28;20108;-72
2021/09/19 09:14:30;;;;;;;29.90;23.55;;;;;;;;;;5080337;28;20189;-72
2021/09/19 09:17:16;;;;;;;33.75;24.65;;;;;;;;;;5085667;28;20485;-71
2021/09/19 09:19:43;;;;;;;32.05;24.77;;;;;;;;;;5070387;28;20016;-71
2021/09/19 09:22:09;;;;;;;31.80;24.55;;;;;;;;;;5067733;28;20036;-71
2021/09/19 09:24:37;;;;;;;30.67;24.90;;;;;;;;;;5068105;28;20470;-71
2021/09/19 09:27:23;;;;;;;36.00;25.55;;;;;;;;;;5068608;28;20044;-71
2021/09/19 09:30:27;;;;;;;32.53;24.88;;;;;;;;;;5069985;28;20038;-71
2021/09/19 09:32:55;;;;;;;33.88;24.85;;;;;;;;;;5042308;28;20033;-71
2021/09/19 09:35:23;;;;;;;31.10;24.05;;;;;;;;;;5061885;28;20494;-72
2021/09/19 09:37:49;;;;;;;30.95;24.00;;;;;;;;;;5066469;28;20035;-71
2021/09/19 09:40:16;;;;;;;30.13;24.48;;;;;;;;;;5066420;28;20105;-70
2021/09/19 09:43:00;;;;;;;32.38;23.33;;;;;;;;;;5068469;28;20123;-71
2021/09/19 09:45:26;;;;;;;29.45;23.42;;;;;;;;;;5069103;28;20025;-72
2021/09/19 09:47:52;;;;;;;31.85;24.73;;;;;;;;;;5063789;28;20033;-72
2021/09/19 09:50:24;;;;;;;31.25;23.67;;;;;;;;;;5070226;28;20024;-72
2021/09/19 09:52:52;;;;;;;35.53;25.45;;;;;;;;;;5070931;28;20047;-72
2021/09/19 09:55:21;;;;;;;33.75;25.00;;;;;;;;;;5072356;28;20025;-71
2021/09/19 09:58:07;;;;;;;35.97;26.13;;;;;;;;;;5058559;28;20067;-71
2021/09/19 10:00:33;;;;;;;34.15;26.05;;;;;;;;;;5069819;28;20025;-72
2021/09/19 10:02:59;;;;;;;33.17;23.73;;;;;;;;;;5072742;28;20032;-71
2021/09/19 10:05:26;;;;;;;36.58;25.30;;;;;;;;;;5073574;28;20024;-73
2021/09/19 10:07:52;;;;;;;32.78;25.45;;;;;;;;;;5071663;28;20032;-71
2021/09/19 10:10:20;;;;;;;32.03;24.77;;;;;;;;;;5076224;28;20098;-72
2021/09/19 10:12:47;;;;;;;33.38;25.25;;;;;;;;;;5069555;28;20030;-71
2021/09/19 10:15:13;;;;;;;34.10;25.83;;;;;;;;;;5080181;28;20019;-72
2021/09/19 10:17:39;;;;;;;39.58;26.85;;;;;;;;;;5076894;28;20025;-72
2021/09/19 10:20:26;;;;;;;32.33;26.80;;;;;;;;;;5072127;28;20034;-72
2021/09/19 10:22:57;;;;;;;33.65;25.92;;;;;;;;;;5070506;28;20272;-72
2021/09/19 10:25:26;;;;;;;37.22;27.25;;;;;;;;;;5069991;28;20032;-72
2021/09/19 10:27:53;;;;;;;31.48;23.70;;;;;;;;;;5069159;28;20040;-71
2021/09/19 10:30:19;;;;;;;35.70;25.77;;;;;;;;;;5060644;28;20158;-72
2021/09/19 10:32:46;;;;;;;32.15;26.27;;;;;;;;;;5054327;28;20037;-71
2021/09/19 10:35:16;;;;;;;32.65;25.35;;;;;;;;;;5073404;28;20025;-72
2021/09/19 10:37:48;;;;;;;30.15;24.90;;;;;;;;;;5079253;28;20020;-73
2021/09/19 10:40:15;;;;;;;32.38;25.67;;;;;;;;;;5083278;28;20048;-72
2021/09/19 10:42:49;;;;;;;35.65;26.63;;;;;;;;;;5073632;28;20032;-72
2021/09/19 10:45:16;;;;;;;33.88;26.73;;;;;;;;;;5078702;28;20028;-73
2021/09/19 10:47:44;;;;;;;31.05;24.95;;;;;;;;;;5089223;28;20020;-73
2021/09/19 10:50:17;;;;;;;31.70;26.00;;;;;;;;;;5076169;28;20496;-73
2021/09/19 10:52:44;;;;;;;32.55;25.55;;;;;;;;;;5076427;28;20101;-73
2021/09/19 10:55:29;;;;;;;32.00;24.38;;;;;;;;;;5080001;28;20039;-73
2021/09/19 10:57:59;;;;;;;32.28;25.35;;;;;;;;;;5076384;28;20477;-73
2021/09/19 11:00:26;;;;;;;29.67;22.45;;;;;;;;;;5072683;28;20093;-73
2021/09/19 11:03:04;;;;;;;30.30;23.13;;;;;;;;;;5072385;28;20501;-73
2021/09/19 11:05:32;;;;;;;33.83;24.35;;;;;;;;;;5077668;28;20059;-73
2021/09/19 11:08:07;;;;;;;32.60;25.10;;;;;;;;;;5074135;28;20016;-73
2021/09/19 11:10:56;;;;;;;33.95;27.05;;;;;;;;;;5089918;28;20027;-73
2021/09/19 11:13:25;;;;;;;33.50;23.40;;;;;;;;;;5076083;28;20113;-73
2021/09/19 11:16:03;;;;;;;31.55;23.27;;;;;;;;;;5077342;28;20085;-73
2021/09/19 11:18:44;;;;;;;29.55;22.40;;;;;;;;;;5082852;28;20530;-74
2021/09/19 11:21:10;;;;;;;33.20;24.75;;;;;;;;;;5083914;28;20036;-72
2021/09/19 11:23:46;;;;;;;27.75;21.55;;;;;;;;;;5079645;28;20024;-73
2021/09/19 11:26:27;;;;;;;32.38;24.55;;;;;;;;;;5073950;28;20028;-72
2021/09/19 11:28:58;;;;;;;31.85;24.30;;;;;;;;;;5069363;28;20041;-72
2021/09/19 11:31:24;;;;;;;34.23;26.70;;;;;;;;;;5084394;28;20429;-73
2021/09/19 11:33:50;;;;;;;33.35;26.77;;;;;;;;;;5082251;28;20032;-73
2021/09/19 11:36:18;;;;;;;35.13;23.45;;;;;;;;;;5080540;28;20107;-72
2021/09/19 11:38:46;;;;;;;38.42;26.25;;;;;;;;;;5080191;28;20044;-73
2021/09/19 11:41:13;;;;;;;30.92;23.45;;;;;;;;;;5066475;28;20032;-73
2021/09/19 11:43:40;;;;;;;30.65;24.25;;;;;;;;;;5064511;28;20458;-73
2021/09/19 11:46:07;;;;;;;31.45;24.77;;;;;;;;;;5065698;28;20086;-73
2021/09/19 11:48:33;;;;;;;34.75;25.65;;;;;;;;;;5065819;28;20044;-73
2021/09/19 11:51:00;;;;;;;33.08;25.50;;;;;;;;;;5069240;28;20025;-73
2021/09/19 11:53:26;;;;;;;33.47;25.60;;;;;;;;;;5068054;28;20544;-72
2021/09/19 11:55:53;;;;;;;34.30;25.38;;;;;;;;;;5066743;28;20505;-73
2021/09/19 11:58:20;;;;;;;34.95;26.38;;;;;;;;;;5062389;28;20040;-72
2021/09/19 12:00:47;;;;;;;33.03;25.02;;;;;;;;;;5067420;28;20265;-73
2021/09/19 12:03:13;;;;;;;35.58;27.00;;;;;;;;;;5067121;28;20115;-72
2021/09/19 12:05:39;;;;;;;31.95;22.80;;;;;;;;;;5068670;28;20032;-73
2021/09/19 12:08:06;;;;;;;35.28;24.50;;;;;;;;;;5064574;28;20020;-73
2021/09/19 12:10:32;;;;;;;34.30;26.02;;;;;;;;;;5069970;28;20008;-73
2021/09/19 12:12:59;;;;;;;35.53;28.20;;;;;;;;;;5064937;28;20067;-72
2021/09/19 12:15:28;;;;;;;35.78;26.98;;;;;;;;;;5063788;28;20209;-72
2021/09/19 12:18:06;;;;;;;37.28;27.13;;;;;;;;;;5062427;28;20047;-73
2021/09/19 12:20:33;;;;;;;36.65;28.50;;;;;;;;;;5068083;28;20032;-72
2021/09/19 12:23:20;;;;;;;33.75;26.08;;;;;;;;;;5063337;28;20023;-72
2021/09/19 12:25:50;;;;;;;36.28;27.63;;;;;;;;;;5063059;28;20571;-72
2021/09/19 12:28:38;;;;;;;36.95;28.65;;;;;;;;;;5061273;28;20024;-72
2021/09/19 12:31:06;;;;;;;36.58;28.65;;;;;;;;;;5065274;28;20012;-72
2021/09/19 12:33:32;;;;;;;32.28;25.58;;;;;;;;;;5061101;28;20042;-72
2021/09/19 12:35:58;;;;;;;34.92;26.75;;;;;;;;;;5061381;28;20346;-72
2021/09/19 12:38:25;;;;;;;36.70;28.10;;;;;;;;;;5059788;28;20024;-72
2021/09/19 12:40:52;;;;;;;36.95;28.70;;;;;;;;;;5061576;28;20036;-72
2021/09/19 12:43:18;;;;;;;34.83;28.88;;;;;;;;;;5063582;28;20032;-73
2021/09/19 12:45:49;;;;;;;38.10;29.02;;;;;;;;;;5065917;28;20036;-72
2021/09/19 12:48:21;;;;;;;41.27;27.97;;;;;;;;;;5063062;28;20027;-72
2021/09/19 12:50:53;;;;;;;35.05;27.88;;;;;;;;;;5063166;28;20031;-72
2021/09/19 12:53:24;;;;;;;36.47;26.17;;;;;;;;;;5063873;28;20013;-73
2021/09/19 12:55:50;;;;;;;34.85;26.83;;;;;;;;;;5063314;28;20127;-72
2021/09/19 12:58:16;;;;;;;36.72;28.30;;;;;;;;;;5058679;28;20506;-72
2021/09/19 13:00:42;;;;;;;31.70;25.58;;;;;;;;;;5059829;28;20486;-73
2021/09/19 13:03:08;;;;;;;35.55;27.27;;;;;;;;;;5064185;28;20563;-73
2021/09/19 13:05:35;;;;;;;35.60;24.92;;;;;;;;;;5060991;28;20498;-72
2021/09/19 13:08:01;;;;;;;33.90;25.85;;;;;;;;;;5062658;28;20020;-73
2021/09/19 13:10:28;;;;;;;32.50;24.27;;;;;;;;;;5065267;28;20024;-72
2021/09/19 13:12:54;;;;;;;35.28;27.02;;;;;;;;;;5064671;28;20027;-73
2021/09/19 13:15:22;;;;;;;33.50;26.65;;;;;;;;;;5065975;28;20032;-72
2021/09/19 13:17:48;;;;;;;34.88;26.05;;;;;;;;;;5062013;28;20028;-73
2021/09/19 13:20:15;;;;;;;31.50;24.20;;;;;;;;;;5067661;28;20466;-72
2021/09/19 13:22:41;;;;;;;30.83;23.98;;;;;;;;;;5058674;28;20130;-71
2021/09/19 13:25:07;;;;;;;29.90;22.88;;;;;;;;;;5062138;28;20064;-72
2021/09/19 13:27:33;;;;;;;35.58;25.70;;;;;;;;;;5056926;28;20281;-72
2021/09/19 13:30:00;;;;;;;29.25;24.25;;;;;;;;;;5065446;28;20027;-72
2021/09/19 13:32:26;;;;;;;30.25;24.40;;;;;;;;;;5069916;28;20025;-72
2021/09/19 13:34:52;;;;;;;32.42;25.15;;;;;;;;;;5071433;28;20036;-72
2021/09/19 13:37:20;;;;;;;32.15;23.10;;;;;;;;;;5059533;28;20024;-72
2021/09/19 13:39:46;;;;;;;31.02;23.50;;;;;;;;;;5072583;28;20068;-72
2021/09/19 13:42:12;;;;;;;31.10;23.20;;;;;;;;;;5073736;28;20035;-72
2021/09/19 13:44:38;;;;;;;28.80;22.52;;;;;;;;;;5087018;28;20032;-72
2021/09/19 13:47:05;;;;;;;31.13;22.95;;;;;;;;;;5069794;28;20028;-72
2021/09/19 13:49:31;;;;;;;32.17;25.45;;;;;;;;;;5071679;28;20082;-72
2021/09/19 13:52:00;;;;;;;32.75;21.98;;;;;;;;;;5070046;28;20032;-72
2021/09/19 13:54:26;;;;;;;30.42;24.33;;;;;;;;;;5071595;28;20039;-72
2021/09/19 13:56:52;;;;;;;30.98;23.00;;;;;;;;;;5069507;28;20074;-72
2021/09/19 13:59:21;;;;;;;29.67;20.95;;;;;;;;;;5068499;28;20020;-72
2021/09/19 14:01:49;;;;;;;26.60;20.20;;;;;;;;;;5071245;28;20016;-73
2021/09/19 14:04:15;;;;;;;26.00;19.48;;;;;;;;;;5072531;28;20022;-72
2021/09/19 14:06:42;;;;;;;28.83;21.80;;;;;;;;;;5071639;28;20020;-72
2021/09/19 14:09:08;;;;;;;28.48;20.08;;;;;;;;;;5066097;28;20039;-72
2021/09/19 14:11:34;;;;;;;26.30;20.17;;;;;;;;;;5072136;28;20170;-72
2021/09/19 14:14:01;;;;;;;28.25;22.90;;;;;;;;;;5071928;28;20029;-73
2021/09/19 14:16:27;;;;;;;30.23;22.05;;;;;;;;;;5068048;28;20024;-72